sensor_id;sensor_type;location;lat;lon;timestamp;P1;durP1;ratioP1;P2;durP2;ratioP2
3016;SDS011;1518;52.408;13.060;2023-02-28T00:01:31;5.28;;;3.78;;
3016;SDS011;1518;52.408;13.060;2023-02-28T00:04:19;4.65;;;3.83;;
3016;SDS011;1518;52.408;13.060;2023-02-28T00:07:07;5.15;;;3.88;;
3016;SDS011;1518;52.408;13.060;2023-02-28T00:09:55;6.07;;;3.75;;
3016;SDS011;1518;52.408;13.060;2023-02-28T00:12:44;3.97;;;3.58;;
3016;SDS011;1518;52.408;13.060;2023-02-28T00:15:32;4.05;;;3.58;;
3016;SDS011;1518;52.408;13.060;2023-02-28T00:18:22;4.57;;;3.80;;
3016;SDS011;1518;52.408;13.060;2023-02-28T00:21:10;5.65;;;3.58;;
3016;SDS011;1518;52.408;13.060;2023-02-28T00:23:58;6.00;;;4.75;;
3016;SDS011;1518;52.408;13.060;2023-02-28T00:26:46;7.65;;;3.58;;
3016;SDS011;1518;52.408;13.060;2023-02-28T00:29:34;4.68;;;3.63;;
3016;SDS011;1518;52.408;13.060;2023-02-28T00:32:22;4.18;;;3.72;;
3016;SDS011;1518;52.408;13.060;2023-02-28T00:35:12;4.22;;;3.83;;
3016;SDS011;1518;52.408;13.060;2023-02-28T00:38:00;3.60;;;3.30;;
3016;SDS011;1518;52.408;13.060;2023-02-28T00:40:48;4.72;;;4.32;;
3016;SDS011;1518;52.408;13.060;2023-02-28T00:43:37;5.20;;;4.40;;
3016;SDS011;1518;52.408;13.060;2023-02-28T00:46:26;6.82;;;4.35;;
3016;SDS011;1518;52.408;13.060;2023-02-28T00:49:14;5.50;;;3.75;;
3016;SDS011;1518;52.408;13.060;2023-02-28T00:52:04;4.65;;;4.25;;
3016;SDS011;1518;52.408;13.060;2023-02-28T00:54:52;5.30;;;4.60;;
3016;SDS011;1518;52.408;13.060;2023-02-28T00:57:40;4.85;;;4.10;;
3016;SDS011;1518;52.408;13.060;2023-02-28T01:00:28;4.55;;;4.15;;
3016;SDS011;1518;52.408;13.060;2023-02-28T01:03:16;4.40;;;3.85;;
3016;SDS011;1518;52.408;13.060;2023-02-28T01:06:06;6.55;;;3.97;;
3016;SDS011;1518;52.408;13.060;2023-02-28T01:08:55;5.50;;;4.00;;
3016;SDS011;1518;52.408;13.060;2023-02-28T01:11:43;6.97;;;4.30;;
3016;SDS011;1518;52.408;13.060;2023-02-28T01:14:31;5.38;;;4.15;;
3016;SDS011;1518;52.408;13.060;2023-02-28T01:17:19;7.70;;;5.10;;
3016;SDS011;1518;52.408;13.060;2023-02-28T01:20:08;5.07;;;4.57;;
3016;SDS011;1518;52.408;13.060;2023-02-28T01:22:57;6.63;;;4.43;;
3016;SDS011;1518;52.408;13.060;2023-02-28T01:25:46;3.90;;;3.40;;
3016;SDS011;1518;52.408;13.060;2023-02-28T01:28:35;4.32;;;3.92;;
3016;SDS011;1518;52.408;13.060;2023-02-28T01:31:23;4.43;;;4.03;;
3016;SDS011;1518;52.408;13.060;2023-02-28T01:34:11;4.55;;;4.15;;
3016;SDS011;1518;52.408;13.060;2023-02-28T01:36:59;5.68;;;4.97;;
3016;SDS011;1518;52.408;13.060;2023-02-28T01:39:48;5.00;;;4.45;;
3016;SDS011;1518;52.408;13.060;2023-02-28T01:42:37;6.30;;;4.13;;
3016;SDS011;1518;52.408;13.060;2023-02-28T01:45:26;5.45;;;4.53;;
3016;SDS011;1518;52.408;13.060;2023-02-28T01:48:15;4.57;;;4.18;;
3016;SDS011;1518;52.408;13.060;2023-02-28T01:51:05;5.07;;;4.15;;
3016;SDS011;1518;52.408;13.060;2023-02-28T01:53:58;4.43;;;3.90;;
3016;SDS011;1518;52.408;13.060;2023-02-28T01:56:50;5.18;;;4.22;;
3016;SDS011;1518;52.408;13.060;2023-02-28T01:59:43;5.53;;;4.90;;
3016;SDS011;1518;52.408;13.060;2023-02-28T02:02:36;4.35;;;3.75;;
3016;SDS011;1518;52.408;13.060;2023-02-28T02:05:25;4.82;;;4.28;;
3016;SDS011;1518;52.408;13.060;2023-02-28T02:08:18;4.40;;;4.00;;
3016;SDS011;1518;52.408;13.060;2023-02-28T02:11:10;7.32;;;4.03;;
3016;SDS011;1518;52.408;13.060;2023-02-28T02:14:05;5.40;;;4.75;;
3016;SDS011;1518;52.408;13.060;2023-02-28T02:17:18;4.50;;;4.10;;
3016;SDS011;1518;52.408;13.060;2023-02-28T02:20:16;4.60;;;4.05;;
3016;SDS011;1518;52.408;13.060;2023-02-28T02:26:50;6.20;;;4.18;;
3016;SDS011;1518;52.408;13.060;2023-02-28T02:30:05;4.38;;;3.92;;
3016;SDS011;1518;52.408;13.060;2023-02-28T02:33:08;4.28;;;3.78;;
3016;SDS011;1518;52.408;13.060;2023-02-28T02:36:08;4.97;;;4.07;;
3016;SDS011;1518;52.408;13.060;2023-02-28T02:39:02;5.70;;;4.22;;
3016;SDS011;1518;52.408;13.060;2023-02-28T02:42:00;4.72;;;4.05;;
3016;SDS011;1518;52.408;13.060;2023-02-28T02:44:52;5.00;;;4.50;;
3016;SDS011;1518;52.408;13.060;2023-02-28T02:47:45;4.68;;;3.58;;
3016;SDS011;1518;52.408;13.060;2023-02-28T02:50:34;5.10;;;4.57;;
3016;SDS011;1518;52.408;13.060;2023-02-28T02:53:28;4.88;;;3.78;;
3016;SDS011;1518;52.408;13.060;2023-02-28T02:56:21;4.07;;;3.55;;
3016;SDS011;1518;52.408;13.060;2023-02-28T02:59:13;6.13;;;3.92;;
3016;SDS011;1518;52.408;13.060;2023-02-28T03:02:08;4.53;;;4.13;;
3016;SDS011;1518;52.408;13.060;2023-02-28T03:05:00;5.45;;;4.75;;
3016;SDS011;1518;52.408;13.060;2023-02-28T03:07:51;4.28;;;3.65;;
3016;SDS011;1518;52.408;13.060;2023-02-28T03:10:41;5.20;;;4.50;;
3016;SDS011;1518;52.408;13.060;2023-02-28T03:13:36;4.55;;;4.10;;
3016;SDS011;1518;52.408;13.060;2023-02-28T03:16:36;3.75;;;3.45;;
3016;SDS011;1518;52.408;13.060;2023-02-28T03:19:40;4.78;;;4.28;;
3016;SDS011;1518;52.408;13.060;2023-02-28T03:22:45;5.22;;;3.75;;
3016;SDS011;1518;52.408;13.060;2023-02-28T03:25:43;4.32;;;3.78;;
3016;SDS011;1518;52.408;13.060;2023-02-28T03:28:41;4.18;;;3.47;;
3016;SDS011;1518;52.408;13.060;2023-02-28T03:31:36;4.18;;;3.78;;
3016;SDS011;1518;52.408;13.060;2023-02-28T03:34:28;4.50;;;3.78;;
3016;SDS011;1518;52.408;13.060;2023-02-28T03:37:19;4.50;;;3.08;;
3016;SDS011;1518;52.408;13.060;2023-02-28T03:40:10;5.07;;;3.65;;
3016;SDS011;1518;52.408;13.060;2023-02-28T03:43:03;4.30;;;3.90;;
3016;SDS011;1518;52.408;13.060;2023-02-28T03:45:56;5.45;;;4.30;;
3016;SDS011;1518;52.408;13.060;2023-02-28T03:48:49;4.88;;;3.90;;
3016;SDS011;1518;52.408;13.060;2023-02-28T03:51:41;3.92;;;3.55;;
3016;SDS011;1518;52.408;13.060;2023-02-28T03:54:31;3.85;;;3.47;;
3016;SDS011;1518;52.408;13.060;2023-02-28T03:57:23;4.18;;;3.78;;
3016;SDS011;1518;52.408;13.060;2023-02-28T04:00:17;4.57;;;4.18;;
3016;SDS011;1518;52.408;13.060;2023-02-28T04:03:08;5.65;;;3.80;;
3016;SDS011;1518;52.408;13.060;2023-02-28T04:05:56;4.07;;;3.78;;
3016;SDS011;1518;52.408;13.060;2023-02-28T04:08:45;4.65;;;3.70;;
3016;SDS011;1518;52.408;13.060;2023-02-28T04:11:35;5.82;;;3.75;;
3016;SDS011;1518;52.408;13.060;2023-02-28T04:14:24;4.70;;;3.67;;
3016;SDS011;1518;52.408;13.060;2023-02-28T04:17:14;3.40;;;3.10;;
3016;SDS011;1518;52.408;13.060;2023-02-28T04:20:02;3.70;;;3.40;;
3016;SDS011;1518;52.408;13.060;2023-02-28T04:22:55;4.13;;;3.75;;
3016;SDS011;1518;52.408;13.060;2023-02-28T04:25:43;4.40;;;3.50;;
3016;SDS011;1518;52.408;13.060;2023-02-28T04:28:31;4.50;;;3.60;;
3016;SDS011;1518;52.408;13.060;2023-02-28T04:31:20;3.97;;;3.53;;
3016;SDS011;1518;52.408;13.060;2023-02-28T04:34:09;4.22;;;3.83;;
3016;SDS011;1518;52.408;13.060;2023-02-28T04:36:58;3.83;;;3.20;;
3016;SDS011;1518;52.408;13.060;2023-02-28T04:40:02;3.60;;;3.30;;
3016;SDS011;1518;52.408;13.060;2023-02-28T04:42:51;4.20;;;3.60;;
3016;SDS011;1518;52.408;13.060;2023-02-28T04:45:39;3.67;;;3.38;;
3016;SDS011;1518;52.408;13.060;2023-02-28T04:48:28;4.28;;;3.75;;
3016;SDS011;1518;52.408;13.060;2023-02-28T04:51:18;4.30;;;3.63;;
3016;SDS011;1518;52.408;13.060;2023-02-28T04:54:07;4.75;;;3.00;;
3016;SDS011;1518;52.408;13.060;2023-02-28T04:56:55;3.35;;;3.05;;
3016;SDS011;1518;52.408;13.060;2023-02-28T04:59:43;4.50;;;3.63;;
3016;SDS011;1518;52.408;13.060;2023-02-28T05:02:33;4.40;;;4.00;;
3016;SDS011;1518;52.408;13.060;2023-02-28T05:05:22;4.57;;;3.85;;
3016;SDS011;1518;52.408;13.060;2023-02-28T05:08:11;4.43;;;3.58;;
3016;SDS011;1518;52.408;13.060;2023-02-28T05:10:59;4.13;;;3.72;;
3016;SDS011;1518;52.408;13.060;2023-02-28T05:13:48;4.70;;;4.30;;
3016;SDS011;1518;52.408;13.060;2023-02-28T05:16:37;4.45;;;3.85;;
3016;SDS011;1518;52.408;13.060;2023-02-28T05:19:25;3.72;;;3.30;;
3016;SDS011;1518;52.408;13.060;2023-02-28T05:22:13;5.72;;;3.65;;
3016;SDS011;1518;52.408;13.060;2023-02-28T05:25:04;3.70;;;3.40;;
3016;SDS011;1518;52.408;13.060;2023-02-28T05:27:53;4.75;;;3.47;;
3016;SDS011;1518;52.408;13.060;2023-02-28T05:30:41;4.95;;;3.60;;
3016;SDS011;1518;52.408;13.060;2023-02-28T05:33:29;3.40;;;3.10;;
3016;SDS011;1518;52.408;13.060;2023-02-28T05:36:17;4.70;;;4.13;;
3016;SDS011;1518;52.408;13.060;2023-02-28T05:42:00;4.32;;;3.85;;
3016;SDS011;1518;52.408;13.060;2023-02-28T05:44:48;4.40;;;4.00;;
3016;SDS011;1518;52.408;13.060;2023-02-28T05:47:36;4.95;;;4.20;;
3016;SDS011;1518;52.408;13.060;2023-02-28T05:50:24;3.88;;;3.50;;
3016;SDS011;1518;52.408;13.060;2023-02-28T05:53:12;4.25;;;3.53;;
3016;SDS011;1518;52.408;13.060;2023-02-28T05:56:00;4.47;;;4.03;;
3016;SDS011;1518;52.408;13.060;2023-02-28T05:58:49;3.80;;;3.47;;
3016;SDS011;1518;52.408;13.060;2023-02-28T06:01:38;5.70;;;3.95;;
3016;SDS011;1518;52.408;13.060;2023-02-28T06:04:28;5.35;;;4.70;;
3016;SDS011;1518;52.408;13.060;2023-02-28T06:07:17;4.63;;;4.20;;
3016;SDS011;1518;52.408;13.060;2023-02-28T06:10:06;4.53;;;3.92;;
3016;SDS011;1518;52.408;13.060;2023-02-28T06:12:54;8.75;;;4.45;;
3016;SDS011;1518;52.408;13.060;2023-02-28T06:15:44;5.82;;;4.10;;
3016;SDS011;1518;52.408;13.060;2023-02-28T06:18:32;6.22;;;3.80;;
3016;SDS011;1518;52.408;13.060;2023-02-28T06:21:20;4.53;;;3.75;;
3016;SDS011;1518;52.408;13.060;2023-02-28T06:24:09;5.13;;;4.00;;
3016;SDS011;1518;52.408;13.060;2023-02-28T06:26:57;4.82;;;4.38;;
3016;SDS011;1518;52.408;13.060;2023-02-28T06:29:53;3.97;;;3.50;;
3016;SDS011;1518;52.408;13.060;2023-02-28T06:32:43;4.65;;;4.07;;
3016;SDS011;1518;52.408;13.060;2023-02-28T06:35:31;4.28;;;3.53;;
3016;SDS011;1518;52.408;13.060;2023-02-28T06:38:19;4.38;;;3.88;;
3016;SDS011;1518;52.408;13.060;2023-02-28T06:41:07;5.68;;;4.03;;
3016;SDS011;1518;52.408;13.060;2023-02-28T06:43:56;3.53;;;3.22;;
3016;SDS011;1518;52.408;13.060;2023-02-28T06:46:44;5.15;;;4.30;;
3016;SDS011;1518;52.408;13.060;2023-02-28T06:49:34;4.20;;;3.78;;
3016;SDS011;1518;52.408;13.060;2023-02-28T06:52:23;4.07;;;3.70;;
3016;SDS011;1518;52.408;13.060;2023-02-28T06:55:11;6.15;;;4.70;;
3016;SDS011;1518;52.408;13.060;2023-02-28T06:57:59;4.25;;;3.85;;
3016;SDS011;1518;52.408;13.060;2023-02-28T07:00:49;5.45;;;4.95;;
3016;SDS011;1518;52.408;13.060;2023-02-28T07:03:38;3.92;;;3.50;;
3016;SDS011;1518;52.408;13.060;2023-02-28T07:06:27;5.30;;;4.50;;
3016;SDS011;1518;52.408;13.060;2023-02-28T07:09:15;6.65;;;4.88;;
3016;SDS011;1518;52.408;13.060;2023-02-28T07:12:05;5.47;;;4.07;;
3016;SDS011;1518;52.408;13.060;2023-02-28T07:14:53;11.00;;;7.95;;
3016;SDS011;1518;52.408;13.060;2023-02-28T07:17:42;9.07;;;6.97;;
3016;SDS011;1518;52.408;13.060;2023-02-28T07:20:30;7.40;;;5.97;;
3016;SDS011;1518;52.408;13.060;2023-02-28T07:23:20;9.35;;;5.95;;
3016;SDS011;1518;52.408;13.060;2023-02-28T07:26:10;9.02;;;5.47;;
3016;SDS011;1518;52.408;13.060;2023-02-28T07:29:01;8.43;;;6.35;;
3016;SDS011;1518;52.408;13.060;2023-02-28T07:31:49;7.53;;;5.35;;
3016;SDS011;1518;52.408;13.060;2023-02-28T07:34:39;10.80;;;6.15;;
3016;SDS011;1518;52.408;13.060;2023-02-28T07:37:27;7.40;;;5.18;;
3016;SDS011;1518;52.408;13.060;2023-02-28T07:40:19;7.60;;;4.93;;
3016;SDS011;1518;52.408;13.060;2023-02-28T07:43:07;6.90;;;4.20;;
3016;SDS011;1518;52.408;13.060;2023-02-28T07:45:55;6.93;;;4.20;;
3016;SDS011;1518;52.408;13.060;2023-02-28T07:48:48;4.90;;;3.80;;
3016;SDS011;1518;52.408;13.060;2023-02-28T07:51:36;7.03;;;3.88;;
3016;SDS011;1518;52.408;13.060;2023-02-28T07:54:24;5.80;;;4.28;;
3016;SDS011;1518;52.408;13.060;2023-02-28T07:57:13;4.28;;;3.58;;
3016;SDS011;1518;52.408;13.060;2023-02-28T08:00:02;9.00;;;3.97;;
3016;SDS011;1518;52.408;13.060;2023-02-28T08:02:51;5.40;;;3.50;;
3016;SDS011;1518;52.408;13.060;2023-02-28T08:05:39;3.90;;;3.55;;
3016;SDS011;1518;52.408;13.060;2023-02-28T08:08:27;3.22;;;2.92;;
3016;SDS011;1518;52.408;13.060;2023-02-28T08:11:17;3.63;;;3.33;;
3016;SDS011;1518;52.408;13.060;2023-02-28T08:14:07;7.45;;;6.53;;
3016;SDS011;1518;52.408;13.060;2023-02-28T08:16:56;9.20;;;7.55;;
3016;SDS011;1518;52.408;13.060;2023-02-28T08:19:44;9.38;;;6.30;;
3016;SDS011;1518;52.408;13.060;2023-02-28T08:22:33;6.38;;;4.82;;
3016;SDS011;1518;52.408;13.060;2023-02-28T08:25:21;4.55;;;4.13;;
3016;SDS011;1518;52.408;13.060;2023-02-28T08:28:09;4.43;;;3.92;;
3016;SDS011;1518;52.408;13.060;2023-02-28T08:30:58;5.50;;;3.60;;
3016;SDS011;1518;52.408;13.060;2023-02-28T08:33:46;4.68;;;3.95;;
3016;SDS011;1518;52.408;13.060;2023-02-28T08:36:37;4.50;;;3.17;;
3016;SDS011;1518;52.408;13.060;2023-02-28T08:39:26;4.07;;;3.45;;
3016;SDS011;1518;52.408;13.060;2023-02-28T08:42:14;4.03;;;3.63;;
3016;SDS011;1518;52.408;13.060;2023-02-28T08:45:02;3.20;;;2.90;;
3016;SDS011;1518;52.408;13.060;2023-02-28T08:47:52;3.30;;;3.00;;
3016;SDS011;1518;52.408;13.060;2023-02-28T08:50:41;4.25;;;3.67;;
3016;SDS011;1518;52.408;13.060;2023-02-28T08:53:36;5.40;;;3.20;;
3016;SDS011;1518;52.408;13.060;2023-02-28T08:56:25;6.30;;;3.67;;
3016;SDS011;1518;52.408;13.060;2023-02-28T08:59:14;5.43;;;3.20;;
3016;SDS011;1518;52.408;13.060;2023-02-28T09:02:02;4.13;;;3.40;;
3016;SDS011;1518;52.408;13.060;2023-02-28T09:04:51;5.47;;;3.58;;
3016;SDS011;1518;52.408;13.060;2023-02-28T09:07:39;5.07;;;3.03;;
3016;SDS011;1518;52.408;13.060;2023-02-28T09:10:28;3.60;;;3.30;;
3016;SDS011;1518;52.408;13.060;2023-02-28T09:13:16;5.97;;;3.70;;
3016;SDS011;1518;52.408;13.060;2023-02-28T09:16:05;5.85;;;3.38;;
3016;SDS011;1518;52.408;13.060;2023-02-28T09:18:57;4.85;;;3.45;;
3016;SDS011;1518;52.408;13.060;2023-02-28T09:21:46;5.05;;;3.05;;
3016;SDS011;1518;52.408;13.060;2023-02-28T09:24:35;3.50;;;3.20;;
3016;SDS011;1518;52.408;13.060;2023-02-28T09:27:23;3.85;;;2.78;;
3016;SDS011;1518;52.408;13.060;2023-02-28T09:30:12;3.05;;;2.40;;
3016;SDS011;1518;52.408;13.060;2023-02-28T09:33:00;3.35;;;2.88;;
3016;SDS011;1518;52.408;13.060;2023-02-28T09:35:49;3.00;;;2.70;;
3016;SDS011;1518;52.408;13.060;2023-02-28T09:38:39;2.50;;;2.30;;
3016;SDS011;1518;52.408;13.060;2023-02-28T09:41:30;3.78;;;2.83;;
3016;SDS011;1518;52.408;13.060;2023-02-28T09:44:27;4.22;;;2.30;;
3016;SDS011;1518;52.408;13.060;2023-02-28T09:47:23;2.80;;;2.40;;
3016;SDS011;1518;52.408;13.060;2023-02-28T09:50:17;3.08;;;2.40;;
3016;SDS011;1518;52.408;13.060;2023-02-28T09:53:19;4.60;;;2.60;;
3016;SDS011;1518;52.408;13.060;2023-02-28T09:56:20;4.65;;;2.75;;
3016;SDS011;1518;52.408;13.060;2023-02-28T09:59:18;3.08;;;2.20;;
3016;SDS011;1518;52.408;13.060;2023-02-28T10:02:38;2.47;;;2.13;;
3016;SDS011;1518;52.408;13.060;2023-02-28T10:05:33;3.67;;;2.42;;
3016;SDS011;1518;52.408;13.060;2023-02-28T10:08:27;2.97;;;2.25;;
3016;SDS011;1518;52.408;13.060;2023-02-28T10:11:21;3.13;;;2.10;;
3016;SDS011;1518;52.408;13.060;2023-02-28T10:14:11;3.30;;;2.72;;
3016;SDS011;1518;52.408;13.060;2023-02-28T10:17:03;2.42;;;2.22;;
3016;SDS011;1518;52.408;13.060;2023-02-28T10:20:00;4.82;;;2.85;;
3016;SDS011;1518;52.408;13.060;2023-02-28T10:22:56;7.25;;;3.28;;
3016;SDS011;1518;52.408;13.060;2023-02-28T10:25:54;4.72;;;2.20;;
3016;SDS011;1518;52.408;13.060;2023-02-28T10:28:46;3.65;;;1.98;;
3016;SDS011;1518;52.408;13.060;2023-02-28T10:31:34;3.42;;;2.60;;
3016;SDS011;1518;52.408;13.060;2023-02-28T10:34:22;3.05;;;2.42;;
3016;SDS011;1518;52.408;13.060;2023-02-28T10:37:12;3.13;;;2.42;;
3016;SDS011;1518;52.408;13.060;2023-02-28T10:40:00;3.30;;;2.10;;
3016;SDS011;1518;52.408;13.060;2023-02-28T10:42:54;1.88;;;1.77;;
3016;SDS011;1518;52.408;13.060;2023-02-28T10:45:53;2.92;;;2.55;;
3016;SDS011;1518;52.408;13.060;2023-02-28T10:48:45;3.67;;;2.15;;
3016;SDS011;1518;52.408;13.060;2023-02-28T10:51:38;2.22;;;1.77;;
3016;SDS011;1518;52.408;13.060;2023-02-28T10:54:28;4.47;;;2.60;;
3016;SDS011;1518;52.408;13.060;2023-02-28T10:57:20;4.35;;;2.00;;
3016;SDS011;1518;52.408;13.060;2023-02-28T11:00:13;4.07;;;2.10;;
3016;SDS011;1518;52.408;13.060;2023-02-28T11:03:05;3.58;;;2.17;;
3016;SDS011;1518;52.408;13.060;2023-02-28T11:06:13;4.28;;;2.30;;
3016;SDS011;1518;52.408;13.060;2023-02-28T11:09:06;3.15;;;1.95;;
3016;SDS011;1518;52.408;13.060;2023-02-28T11:12:20;3.85;;;2.00;;
3016;SDS011;1518;52.408;13.060;2023-02-28T11:15:18;3.38;;;1.83;;
3016;SDS011;1518;52.408;13.060;2023-02-28T11:18:19;5.60;;;2.42;;
3016;SDS011;1518;52.408;13.060;2023-02-28T11:21:15;2.60;;;1.92;;
3016;SDS011;1518;52.408;13.060;2023-02-28T11:24:12;3.30;;;1.92;;
3016;SDS011;1518;52.408;13.060;2023-02-28T11:27:13;2.65;;;1.70;;
3016;SDS011;1518;52.408;13.060;2023-02-28T11:30:26;2.33;;;2.00;;
3016;SDS011;1518;52.408;13.060;2023-02-28T11:33:26;1.98;;;1.85;;
3016;SDS011;1518;52.408;13.060;2023-02-28T11:36:17;2.60;;;1.45;;
3016;SDS011;1518;52.408;13.060;2023-02-28T11:39:08;1.73;;;1.63;;
3016;SDS011;1518;52.408;13.060;2023-02-28T11:45:41;2.60;;;1.83;;
3016;SDS011;1518;52.408;13.060;2023-02-28T11:48:39;2.15;;;2.00;;
3016;SDS011;1518;52.408;13.060;2023-02-28T11:51:42;3.63;;;1.83;;
3016;SDS011;1518;52.408;13.060;2023-02-28T11:54:40;2.75;;;1.88;;
3016;SDS011;1518;52.408;13.060;2023-02-28T11:57:52;2.22;;;2.03;;
3016;SDS011;1518;52.408;13.060;2023-02-28T12:00:55;6.68;;;1.80;;
3016;SDS011;1518;52.408;13.060;2023-02-28T12:04:01;2.47;;;1.63;;
3016;SDS011;1518;52.408;13.060;2023-02-28T12:07:00;5.95;;;1.98;;
3016;SDS011;1518;52.408;13.060;2023-02-28T12:09:57;2.38;;;1.40;;
3016;SDS011;1518;52.408;13.060;2023-02-28T12:12:58;4.75;;;2.20;;
3016;SDS011;1518;52.408;13.060;2023-02-28T12:16:13;5.78;;;1.55;;
3016;SDS011;1518;52.408;13.060;2023-02-28T12:19:19;3.03;;;1.75;;
3016;SDS011;1518;52.408;13.060;2023-02-28T12:22:14;2.95;;;1.50;;
3016;SDS011;1518;52.408;13.060;2023-02-28T12:25:20;3.22;;;1.90;;
3016;SDS011;1518;52.408;13.060;2023-02-28T12:28:23;2.25;;;1.90;;
3016;SDS011;1518;52.408;13.060;2023-02-28T12:31:16;1.80;;;1.35;;
3016;SDS011;1518;52.408;13.060;2023-02-28T12:34:10;1.70;;;1.45;;
3016;SDS011;1518;52.408;13.060;2023-02-28T12:37:04;2.00;;;1.52;;
3016;SDS011;1518;52.408;13.060;2023-02-28T12:39:58;1.90;;;1.65;;
3016;SDS011;1518;52.408;13.060;2023-02-28T12:42:52;2.05;;;1.85;;
3016;SDS011;1518;52.408;13.060;2023-02-28T12:45:46;3.08;;;1.90;;
3016;SDS011;1518;52.408;13.060;2023-02-28T12:48:38;3.20;;;1.60;;
3016;SDS011;1518;52.408;13.060;2023-02-28T12:51:29;1.92;;;1.50;;
3016;SDS011;1518;52.408;13.060;2023-02-28T12:54:21;2.95;;;1.88;;
3016;SDS011;1518;52.408;13.060;2023-02-28T12:57:13;3.53;;;1.42;;
3016;SDS011;1518;52.408;13.060;2023-02-28T13:00:10;3.20;;;1.58;;
3016;SDS011;1518;52.408;13.060;2023-02-28T13:06:44;4.25;;;2.25;;
3016;SDS011;1518;52.408;13.060;2023-02-28T13:09:52;6.78;;;1.88;;
3016;SDS011;1518;52.408;13.060;2023-02-28T13:12:47;3.78;;;2.00;;
3016;SDS011;1518;52.408;13.060;2023-02-28T13:15:36;2.08;;;1.63;;
3016;SDS011;1518;52.408;13.060;2023-02-28T13:18:28;1.48;;;1.38;;
3016;SDS011;1518;52.408;13.060;2023-02-28T13:21:22;5.75;;;1.75;;
3016;SDS011;1518;52.408;13.060;2023-02-28T13:24:11;1.60;;;1.50;;
3016;SDS011;1518;52.408;13.060;2023-02-28T13:27:36;2.03;;;1.52;;
3016;SDS011;1518;52.408;13.060;2023-02-28T13:34:05;2.42;;;1.67;;
3016;SDS011;1518;52.408;13.060;2023-02-28T13:40:26;3.50;;;1.70;;
3016;SDS011;1518;52.408;13.060;2023-02-28T13:43:18;4.50;;;1.80;;
3016;SDS011;1518;52.408;13.060;2023-02-28T13:46:21;3.30;;;1.70;;
3016;SDS011;1518;52.408;13.060;2023-02-28T13:49:19;1.98;;;1.60;;
3016;SDS011;1518;52.408;13.060;2023-02-28T13:52:10;2.15;;;1.80;;
3016;SDS011;1518;52.408;13.060;2023-02-28T13:55:15;2.65;;;1.83;;
3016;SDS011;1518;52.408;13.060;2023-02-28T13:58:19;3.78;;;1.65;;
3016;SDS011;1518;52.408;13.060;2023-02-28T14:04:43;1.92;;;1.50;;
3016;SDS011;1518;52.408;13.060;2023-02-28T14:07:39;2.33;;;1.88;;
3016;SDS011;1518;52.408;13.060;2023-02-28T14:10:34;3.30;;;1.88;;
3016;SDS011;1518;52.408;13.060;2023-02-28T14:13:41;3.70;;;1.73;;
3016;SDS011;1518;52.408;13.060;2023-02-28T14:16:37;2.88;;;2.47;;
3016;SDS011;1518;52.408;13.060;2023-02-28T14:19:29;2.00;;;1.70;;
3016;SDS011;1518;52.408;13.060;2023-02-28T14:22:22;2.08;;;1.63;;
3016;SDS011;1518;52.408;13.060;2023-02-28T14:25:30;2.50;;;1.60;;
3016;SDS011;1518;52.408;13.060;2023-02-28T14:28:23;3.70;;;2.00;;
3016;SDS011;1518;52.408;13.060;2023-02-28T14:31:27;2.28;;;1.65;;
3016;SDS011;1518;52.408;13.060;2023-02-28T14:34:26;2.70;;;2.17;;
3016;SDS011;1518;52.408;13.060;2023-02-28T14:37:26;1.80;;;1.40;;
3016;SDS011;1518;52.408;13.060;2023-02-28T14:40:17;3.42;;;1.85;;
3016;SDS011;1518;52.408;13.060;2023-02-28T14:43:18;8.32;;;1.92;;
3016;SDS011;1518;52.408;13.060;2023-02-28T14:46:08;3.20;;;1.90;;
3016;SDS011;1518;52.408;13.060;2023-02-28T14:49:02;3.70;;;1.90;;
3016;SDS011;1518;52.408;13.060;2023-02-28T14:52:00;1.70;;;1.60;;
3016;SDS011;1518;52.408;13.060;2023-02-28T14:54:51;1.70;;;1.60;;
3016;SDS011;1518;52.408;13.060;2023-02-28T14:57:41;3.03;;;2.20;;
3016;SDS011;1518;52.408;13.060;2023-02-28T15:00:46;3.17;;;1.88;;
3016;SDS011;1518;52.408;13.060;2023-02-28T15:03:36;3.15;;;2.30;;
3016;SDS011;1518;52.408;13.060;2023-02-28T15:06:26;3.88;;;1.63;;
3016;SDS011;1518;52.408;13.060;2023-02-28T15:09:16;1.92;;;1.65;;
3016;SDS011;1518;52.408;13.060;2023-02-28T15:12:06;3.05;;;2.05;;
3016;SDS011;1518;52.408;13.060;2023-02-28T15:14:54;5.78;;;1.70;;
3016;SDS011;1518;52.408;13.060;2023-02-28T15:17:44;2.88;;;1.83;;
3016;SDS011;1518;52.408;13.060;2023-02-28T15:20:34;2.78;;;1.92;;
3016;SDS011;1518;52.408;13.060;2023-02-28T15:23:27;4.25;;;1.80;;
3016;SDS011;1518;52.408;13.060;2023-02-28T15:26:17;3.53;;;1.80;;
3016;SDS011;1518;52.408;13.060;2023-02-28T15:29:12;2.25;;;2.05;;
3016;SDS011;1518;52.408;13.060;2023-02-28T15:32:03;3.70;;;2.20;;
3016;SDS011;1518;52.408;13.060;2023-02-28T15:34:53;4.03;;;2.20;;
3016;SDS011;1518;52.408;13.060;2023-02-28T15:37:45;8.25;;;2.63;;
3016;SDS011;1518;52.408;13.060;2023-02-28T15:40:37;1.80;;;1.50;;
3016;SDS011;1518;52.408;13.060;2023-02-28T15:43:28;5.82;;;1.70;;
3016;SDS011;1518;52.408;13.060;2023-02-28T15:46:18;3.83;;;1.70;;
3016;SDS011;1518;52.408;13.060;2023-02-28T15:49:12;2.25;;;2.03;;
3016;SDS011;1518;52.408;13.060;2023-02-28T15:52:09;2.00;;;1.90;;
3016;SDS011;1518;52.408;13.060;2023-02-28T15:55:07;2.25;;;1.88;;
3016;SDS011;1518;52.408;13.060;2023-02-28T15:58:00;3.05;;;2.22;;
3016;SDS011;1518;52.408;13.060;2023-02-28T16:00:59;8.13;;;1.85;;
3016;SDS011;1518;52.408;13.060;2023-02-28T16:03:53;3.05;;;2.17;;
3016;SDS011;1518;52.408;13.060;2023-02-28T16:06:43;2.35;;;1.65;;
3016;SDS011;1518;52.408;13.060;2023-02-28T16:09:32;2.13;;;1.67;;
3016;SDS011;1518;52.408;13.060;2023-02-28T16:12:21;1.80;;;1.58;;
3016;SDS011;1518;52.408;13.060;2023-02-28T16:15:19;3.80;;;1.73;;
3016;SDS011;1518;52.408;13.060;2023-02-28T16:18:09;6.00;;;1.73;;
3016;SDS011;1518;52.408;13.060;2023-02-28T16:20:58;2.47;;;2.28;;
3016;SDS011;1518;52.408;13.060;2023-02-28T16:23:46;2.42;;;1.55;;
3016;SDS011;1518;52.408;13.060;2023-02-28T16:26:35;2.33;;;1.80;;
3016;SDS011;1518;52.408;13.060;2023-02-28T16:29:25;3.05;;;1.90;;
3016;SDS011;1518;52.408;13.060;2023-02-28T16:32:16;3.30;;;2.28;;
3016;SDS011;1518;52.408;13.060;2023-02-28T16:35:05;3.45;;;2.00;;
3016;SDS011;1518;52.408;13.060;2023-02-28T16:37:57;1.92;;;1.65;;
3016;SDS011;1518;52.408;13.060;2023-02-28T16:40:45;3.55;;;2.30;;
3016;SDS011;1518;52.408;13.060;2023-02-28T16:43:33;6.93;;;1.77;;
3016;SDS011;1518;52.408;13.060;2023-02-28T16:46:30;2.35;;;2.13;;
3016;SDS011;1518;52.408;13.060;2023-02-28T16:49:22;3.05;;;1.95;;
3016;SDS011;1518;52.408;13.060;2023-02-28T16:52:10;2.70;;;2.50;;
3016;SDS011;1518;52.408;13.060;2023-02-28T16:54:59;5.05;;;2.00;;
3016;SDS011;1518;52.408;13.060;2023-02-28T16:57:47;3.40;;;2.40;;
3016;SDS011;1518;52.408;13.060;2023-02-28T17:00:39;2.83;;;2.03;;
3016;SDS011;1518;52.408;13.060;2023-02-28T17:03:28;2.28;;;2.08;;
3016;SDS011;1518;52.408;13.060;2023-02-28T17:06:22;2.28;;;1.83;;
3016;SDS011;1518;52.408;13.060;2023-02-28T17:09:13;2.90;;;2.45;;
3016;SDS011;1518;52.408;13.060;2023-02-28T17:12:04;2.92;;;2.47;;
3016;SDS011;1518;52.408;13.060;2023-02-28T17:14:52;3.85;;;2.50;;
3016;SDS011;1518;52.408;13.060;2023-02-28T17:17:41;3.72;;;2.45;;
3016;SDS011;1518;52.408;13.060;2023-02-28T17:20:31;2.35;;;2.08;;
3016;SDS011;1518;52.408;13.060;2023-02-28T17:23:20;2.67;;;2.33;;
3016;SDS011;1518;52.408;13.060;2023-02-28T17:26:11;3.03;;;2.03;;
3016;SDS011;1518;52.408;13.060;2023-02-28T17:29:00;4.78;;;2.35;;
3016;SDS011;1518;52.408;13.060;2023-02-28T17:31:48;6.45;;;2.83;;
3016;SDS011;1518;52.408;13.060;2023-02-28T17:34:36;5.03;;;2.53;;
3016;SDS011;1518;52.408;13.060;2023-02-28T17:37:24;7.88;;;2.72;;
3016;SDS011;1518;52.408;13.060;2023-02-28T17:40:14;4.57;;;2.47;;
3016;SDS011;1518;52.408;13.060;2023-02-28T17:43:04;3.35;;;2.15;;
3016;SDS011;1518;52.408;13.060;2023-02-28T17:45:52;3.80;;;2.40;;
3016;SDS011;1518;52.408;13.060;2023-02-28T17:48:42;4.70;;;2.47;;
3016;SDS011;1518;52.408;13.060;2023-02-28T17:51:30;3.58;;;2.40;;
3016;SDS011;1518;52.408;13.060;2023-02-28T17:54:18;4.53;;;2.78;;
3016;SDS011;1518;52.408;13.060;2023-02-28T17:57:08;3.42;;;2.05;;